Time;durP1;ratioP1;P1;durP2;ratioP2;P2;SDS_P1;SDS_P2;PMS_P1;PMS_P2;Temp;Humidity;BMP_temperature;BMP_pressure;BME280_temperature;BME280_humidity;BME280_pressure;Samples;Min_cycle;Max_cycle;Signal;HPM_P1;HPM_P2
2022/06/22 00:01:05;;;;;;;7.5;4.1;;;;;;;;;;;;;
2022/06/22 00:03:39;;;;;;;10.7;4.1;;;;;;;;;;;;;
2022/06/22 00:06:04;;;;;;;6.6;3.5;;;;;;;;;;;;;
2022/06/22 00:08:34;;;;;;;7;3.8;;;;;;;;;;;;;
2022/06/22 00:10:59;;;;;;;6.2;3.5;;;;;;;;;;;;;
2022/06/22 00:13:24;;;;;;;7.9;4.2;;;;;;;;;;;;;
2022/06/22 00:15:51;;;;;;;7.7;3.9;;;;;;;;;;;;;
2022/06/22 00:18:16;;;;;;;11.6;3.8;;;;;;;;;;;;;
2022/06/22 00:20:41;;;;;;;6.7;3.6;;;;;;;;;;;;;
2022/06/22 00:23:06;;;;;;;6.2;3.3;;;;;;;;;;;;;
2022/06/22 00:25:32;;;;;;;7.5;3.4;;;;;;;;;;;;;
2022/06/22 00:27:57;;;;;;;7.7;3.6;;;;;;;;;;;;;
2022/06/22 00:30:22;;;;;;;10.4;3.5;;;;;;;;;;;;;
2022/06/22 00:32:47;;;;;;;9.7;3.7;;;;;;;;;;;;;
2022/06/22 00:35:13;;;;;;;11;3.9;;;;;;;;;;;;;
2022/06/22 00:37:38;;;;;;;9.9;3.5;;;;;;;;;;;;;
2022/06/22 00:40:03;;;;;;;8.9;3.4;;;;;;;;;;;;;
2022/06/22 00:42:28;;;;;;;10;3.5;;;;;;;;;;;;;
2022/06/22 00:44:53;;;;;;;11.1;3.6;;;;;;;;;;;;;
2022/06/22 00:47:19;;;;;;;9.6;3.9;;;;;;;;;;;;;
2022/06/22 00:49:44;;;;;;;9.5;3.9;;;;;;;;;;;;;
2022/06/22 00:52:09;;;;;;;8.2;3.5;;;;;;;;;;;;;
2022/06/22 00:54:34;;;;;;;11.3;4.2;;;;;;;;;;;;;
2022/06/22 00:56:59;;;;;;;7;3;;;;;;;;;;;;;
2022/06/22 00:59:24;;;;;;;8.4;3.7;;;;;;;;;;;;;
2022/06/22 01:01:49;;;;;;;9.6;3.6;;;;;;;;;;;;;
2022/06/22 01:04:14;;;;;;;6.9;3.7;;;;;;;;;;;;;
2022/06/22 01:06:40;;;;;;;9.3;3.5;;;;;;;;;;;;;
2022/06/22 01:09:05;;;;;;;9.5;4.2;;;;;;;;;;;;;
2022/06/22 01:13:55;;;;;;;9.2;3.6;;;;;;;;;;;;;
2022/06/22 01:16:20;;;;;;;10.9;3.9;;;;;;;;;;;;;
2022/06/22 01:18:46;;;;;;;6.4;3.5;;;;;;;;;;;;;
2022/06/22 01:21:11;;;;;;;8.5;4;;;;;;;;;;;;;
2022/06/22 01:23:36;;;;;;;10.6;3.9;;;;;;;;;;;;;
2022/06/22 01:26:01;;;;;;;8.3;3.3;;;;;;;;;;;;;
2022/06/22 01:28:26;;;;;;;9.4;3.5;;;;;;;;;;;;;
2022/06/22 01:30:51;;;;;;;10.9;3.6;;;;;;;;;;;;;
2022/06/22 01:33:16;;;;;;;6.9;3.1;;;;;;;;;;;;;
2022/06/22 01:35:42;;;;;;;9.7;3.4;;;;;;;;;;;;;
2022/06/22 01:38:07;;;;;;;10;3.9;;;;;;;;;;;;;
2022/06/22 01:40:32;;;;;;;9;3.9;;;;;;;;;;;;;
2022/06/22 01:42:57;;;;;;;9.6;3.6;;;;;;;;;;;;;
2022/06/22 01:45:25;;;;;;;11;3.8;;;;;;;;;;;;;
2022/06/22 01:47:50;;;;;;;8.6;3.7;;;;;;;;;;;;;
2022/06/22 01:50:16;;;;;;;8.7;3.5;;;;;;;;;;;;;
2022/06/22 01:52:41;;;;;;;9.7;3.9;;;;;;;;;;;;;
2022/06/22 01:55:06;;;;;;;15.3;4.1;;;;;;;;;;;;;
2022/06/22 01:57:31;;;;;;;11.2;4.1;;;;;;;;;;;;;
2022/06/22 01:59:56;;;;;;;9.7;4.1;;;;;;;;;;;;;
2022/06/22 02:02:22;;;;;;;12.9;3.8;;;;;;;;;;;;;
2022/06/22 02:04:47;;;;;;;9.3;4.1;;;;;;;;;;;;;
2022/06/22 02:09:38;;;;;;;10.6;3.5;;;;;;;;;;;;;
2022/06/22 02:12:30;;;;;;;11.4;4;;;;;;;;;;;;;
2022/06/22 02:14:55;;;;;;;9.1;4.2;;;;;;;;;;;;;
2022/06/22 02:17:22;;;;;;;8.2;3.2;;;;;;;;;;;;;
2022/06/22 02:19:48;;;;;;;7.5;3.8;;;;;;;;;;;;;
2022/06/22 02:22:12;;;;;;;7.4;3.8;;;;;;;;;;;;;
2022/06/22 02:24:37;;;;;;;15;3.7;;;;;;;;;;;;;
2022/06/22 02:27:02;;;;;;;12.6;4;;;;;;;;;;;;;
2022/06/22 02:29:28;;;;;;;8;3.6;;;;;;;;;;;;;
2022/06/22 02:31:53;;;;;;;8.2;3.5;;;;;;;;;;;;;
2022/06/22 02:34:18;;;;;;;12.6;3.8;;;;;;;;;;;;;
2022/06/22 02:36:44;;;;;;;9.8;3.8;;;;;;;;;;;;;
2022/06/22 02:39:11;;;;;;;9.5;3.4;;;;;;;;;;;;;
2022/06/22 02:46:27;;;;;;;11.8;3.4;;;;;;;;;;;;;
2022/06/22 02:48:52;;;;;;;6.8;3.1;;;;;;;;;;;;;
2022/06/22 02:51:17;;;;;;;11;3.7;;;;;;;;;;;;;
2022/06/22 02:53:42;;;;;;;9.7;4;;;;;;;;;;;;;
2022/06/22 02:56:07;;;;;;;11.9;3.9;;;;;;;;;;;;;
2022/06/22 02:58:34;;;;;;;11.2;3.8;;;;;;;;;;;;;
2022/06/22 03:01:00;;;;;;;6.6;3.4;;;;;;;;;;;;;
2022/06/22 03:03:27;;;;;;;8.9;3.5;;;;;;;;;;;;;
2022/06/22 03:05:52;;;;;;;10.6;3.5;;;;;;;;;;;;;
2022/06/22 03:08:18;;;;;;;11.3;3.6;;;;;;;;;;;;;
2022/06/22 03:10:42;;;;;;;10.1;3.6;;;;;;;;;;;;;
2022/06/22 03:13:08;;;;;;;8.8;3.5;;;;;;;;;;;;;
2022/06/22 03:15:33;;;;;;;11.3;3.7;;;;;;;;;;;;;
2022/06/22 03:18:00;;;;;;;10.7;3.9;;;;;;;;;;;;;
2022/06/22 03:20:26;;;;;;;9.6;3.7;;;;;;;;;;;;;
2022/06/22 03:22:53;;;;;;;11.8;3.9;;;;;;;;;;;;;
2022/06/22 03:25:18;;;;;;;10.1;4.1;;;;;;;;;;;;;
2022/06/22 03:27:44;;;;;;;12;3.8;;;;;;;;;;;;;
2022/06/22 03:30:09;;;;;;;10.1;3.7;;;;;;;;;;;;;
2022/06/22 03:32:34;;;;;;;9.3;3.8;;;;;;;;;;;;;
2022/06/22 03:35:00;;;;;;;10.8;3.5;;;;;;;;;;;;;
2022/06/22 03:37:24;;;;;;;9.7;3.7;;;;;;;;;;;;;
2022/06/22 03:39:49;;;;;;;8.6;3.9;;;;;;;;;;;;;
2022/06/22 03:42:15;;;;;;;11.1;4;;;;;;;;;;;;;
2022/06/22 03:44:40;;;;;;;10.5;3.6;;;;;;;;;;;;;
2022/06/22 03:47:05;;;;;;;8.5;4.1;;;;;;;;;;;;;
2022/06/22 03:49:31;;;;;;;12.5;3.6;;;;;;;;;;;;;
2022/06/22 03:51:57;;;;;;;10.8;3.7;;;;;;;;;;;;;
2022/06/22 03:54:24;;;;;;;13.3;3.3;;;;;;;;;;;;;
2022/06/22 03:56:49;;;;;;;11.8;3.9;;;;;;;;;;;;;
2022/06/22 03:59:17;;;;;;;11;3.9;;;;;;;;;;;;;
2022/06/22 04:02:45;;;;;;;10.8;3.4;;;;;;;19.22;84.96387;934.4781;;;;
2022/06/22 04:05:18;;;;;;;11.8;3.4;;;;;;;19.28;83.32227;934.4619;;;;
2022/06/22 04:07:45;;;;;;;11.5;3.8;;;;;;;19.41;82.7998;934.4442;;;;
2022/06/22 04:10:12;;;;;;;9.9;4.1;;;;;;;19.42;83.0918;934.428;;;;
2022/06/22 04:12:37;;;;;;;10.7;3.9;;;;;;;19.51;83.07227;934.4498;;;;
2022/06/22 04:15:02;;;;;;;12.5;3.7;;;;;;;19.62;82.82715;934.479;;;;
2022/06/22 04:17:37;;;;;;;10.9;3.6;;;;;;;19.74;81.92871;934.4299;;;;
2022/06/22 04:20:03;;;;;;;9.5;3.4;;;;;;;19.91;82.06348;934.323;;;;
2022/06/22 04:22:29;;;;;;;10.9;4.1;;;;;;;19.77;82.95996;934.3918;;;;
2022/06/22 04:24:55;;;;;;;11.5;4.4;;;;;;;19.76;81.75684;934.4382;;;;
2022/06/22 04:27:27;;;;;;;12.5;3.8;;;;;;;19.88;81.52148;934.3925;;;;
2022/06/22 04:29:53;;;;;;;13.1;3.9;;;;;;;20;80.80859;934.3678;;;;
2022/06/22 04:32:21;;;;;;;10.4;3.5;;;;;;;20.12;78.97559;934.3195;;;;
2022/06/22 04:34:47;;;;;;;10;3.4;;;;;;;20.21;79.22559;934.3148;;;;
2022/06/22 04:37:13;;;;;;;12.3;3.3;;;;;;;20.34;80.36914;934.1872;;;;
2022/06/22 04:39:38;;;;;;;9.7;3.3;;;;;;;20.33;80.14551;934.1914;;;;
2022/06/22 04:42:11;;;;;;;9.8;3.5;;;;;;;20.4;80.02832;934.1736;;;;
2022/06/22 04:44:43;;;;;;;10.3;3.5;;;;;;;20.3;78.33105;934.2489;;;;
2022/06/22 04:47:09;;;;;;;14;4.2;;;;;;;20.09;79.15625;934.2067;;;;
2022/06/22 04:49:35;;;;;;;10.5;3.8;;;;;;;20.17;80.08301;934.2377;;;;
2022/06/22 04:52:03;;;;;;;12.1;3.8;;;;;;;20.15;80.10254;934.2061;;;;
2022/06/22 04:54:30;;;;;;;9.6;3.6;;;;;;;20.08;80.25195;934.2531;;;;
2022/06/22 04:56:55;;;;;;;8.9;4;;;;;;;19.88;76.97266;934.1769;;;;
2022/06/22 04:59:21;;;;;;;13.5;5.4;;;;;;;19.83;78.74902;934.2569;;;;
2022/06/22 05:01:46;;;;;;;22.2;10.1;;;;;;;19.94;80.71484;934.2325;;;;
2022/06/22 05:04:16;;;;;;;18.5;8.2;;;;;;;20.11;79.60449;934.2592;;;;
2022/06/22 05:06:41;;;;;;;13.2;6.2;;;;;;;20.35;79.28613;934.2569;;;;
2022/06/22 05:09:07;;;;;;;11.2;5.1;;;;;;;20.64;77.95801;934.226;;;;
2022/06/22 05:11:35;;;;;;;11.5;4.1;;;;;;;21.32;74.57813;934.2659;;;;
2022/06/22 05:13:58;;;;;;;9.2;3.6;;;;;;;22.12;72.93164;934.2546;;;;
2022/06/22 05:16:26;;;;;;;9.9;2.8;;;;;;;22.72;66.97168;934.2148;;;;
2022/06/22 05:18:51;;;;;;;9.6;3;;;;;;;22.55;66.07813;934.1919;;;;
2022/06/22 05:21:16;;;;;;;10.3;3;;;;;;;22.69;67.16699;934.1958;;;;
2022/06/22 05:23:44;;;;;;;10.4;3.4;;;;;;;22.71;67.20508;934.228;;;;
2022/06/22 05:26:18;;;;;;;7.2;2.8;;;;;;;22.74;69.95801;934.2039;;;;
2022/06/22 05:28:42;;;;;;;11.5;3.8;;;;;;;22.7;69.89355;934.2227;;;;
2022/06/22 05:31:07;;;;;;;10.9;3;;;;;;;22.43;70.00195;934.2026;;;;
2022/06/22 05:33:36;;;;;;;10.4;3.5;;;;;;;22.49;68.29785;934.1945;;;;
2022/06/22 05:36:03;;;;;;;11.2;3.5;;;;;;;22.37;67.64746;934.2039;;;;
2022/06/22 05:38:28;;;;;;;7.8;3.1;;;;;;;22.25;69.20117;934.2003;;;;
2022/06/22 05:40:53;;;;;;;12.6;3.6;;;;;;;22.09;68.69629;934.1716;;;;
2022/06/22 05:43:27;;;;;;;9.4;3.3;;;;;;;21.37;69.88281;934.1286;;;;
2022/06/22 05:46:02;;;;;;;10.1;3.3;;;;;;;21.39;71.09082;934.1334;;;;
2022/06/22 05:48:26;;;;;;;11.6;3.6;;;;;;;21.53;71.58203;934.1131;;;;
2022/06/22 05:50:52;;;;;;;12.5;3.6;;;;;;;21.48;71.31738;934.0556;;;;
2022/06/22 05:53:17;;;;;;;10.8;3.8;;;;;;;21.55;71.78418;934.0344;;;;
2022/06/22 05:55:43;;;;;;;7.2;3;;;;;;;21.31;70.3291;934.2029;;;;
2022/06/22 05:58:16;;;;;;;9.5;3.1;;;;;;;21.55;72.08984;934.1808;;;;
2022/06/22 06:00:47;;;;;;;11.9;3.2;;;;;;;21.66;71.76855;934.2093;;;;
2022/06/22 06:03:13;;;;;;;14.5;4;;;;;;;21.94;71.48438;934.1548;;;;
2022/06/22 06:05:38;;;;;;;8.5;3.3;;;;;;;21.96;70.23438;934.1771;;;;
2022/06/22 06:08:05;;;;;;;7.8;3.1;;;;;;;21.99;70.80078;934.1434;;;;
2022/06/22 06:10:32;;;;;;;9.5;3.4;;;;;;;21.85;71.15332;934.1379;;;;
2022/06/22 06:12:57;;;;;;;9.9;3.7;;;;;;;21.9;71.53711;934.0897;;;;
2022/06/22 06:15:22;;;;;;;8.6;3.2;;;;;;;21.6;71.7334;934.0648;;;;
2022/06/22 06:17:47;;;;;;;9.8;3.3;;;;;;;21.59;72.18848;934.065;;;;
2022/06/22 06:20:15;;;;;;;9.6;3.4;;;;;;;21.48;69.8291;934.0558;;;;
2022/06/22 06:22:40;;;;;;;14.6;3.7;;;;;;;21.77;69.91016;933.9969;;;;
2022/06/22 06:27:38;;;;;;;8.1;3.2;;;;;;;21.9;68.20703;934.0209;;;;
2022/06/22 06:29:56;;;;;;;11.9;3.6;;;;;;;22.67;66.89453;933.9626;;;;
2022/06/22 06:32:21;;;;;;;11;3.3;;;;;;;23.76;66.11621;933.9731;;;;
2022/06/22 06:34:46;;;;;;;8.9;3;;;;;;;24.03;61.87207;934.0084;;;;
2022/06/22 06:37:11;;;;;;;11.7;3.2;;;;;;;23.68;63.90527;934.0258;;;;
2022/06/22 06:39:38;;;;;;;8.2;3.1;;;;;;;23.6;63.29395;934.0184;;;;
2022/06/22 06:42:06;;;;;;;8.7;3.1;;;;;;;23.19;63.45996;933.9749;;;;
2022/06/22 06:44:29;;;;;;;11.7;3.6;;;;;;;22.94;65.71387;934.0011;;;;
2022/06/22 06:46:53;;;;;;;11.1;3.6;;;;;;;22.54;67.02832;934.1434;;;;
2022/06/22 06:49:18;;;;;;;10;3.1;;;;;;;22.38;66.18262;934.2943;;;;
2022/06/22 06:51:43;;;;;;;9.1;3.1;;;;;;;22.13;68.23145;934.3362;;;;
2022/06/22 06:54:09;;;;;;;8.3;3;;;;;;;22.07;68.18652;934.4444;;;;
2022/06/22 06:56:34;;;;;;;9.7;3.9;;;;;;;21.94;69.52734;934.3606;;;;
2022/06/22 06:58:59;;;;;;;9.7;3.7;;;;;;;21.73;72.09473;934.4165;;;;
2022/06/22 07:01:24;;;;;;;10.2;3.6;;;;;;;21.57;73.25098;934.3561;;;;
2022/06/22 07:03:56;;;;;;;13.5;4;;;;;;;21.53;76.48926;934.3923;;;;
2022/06/22 07:06:21;;;;;;;12.3;3.4;;;;;;;21.53;77.625;934.4458;;;;
2022/06/22 07:08:48;;;;;;;14.4;4.5;;;;;;;21.57;78.80078;934.4696;;;;
2022/06/22 07:11:13;;;;;;;12.3;3.6;;;;;;;21.63;78.4707;934.457;;;;
2022/06/22 07:13:38;;;;;;;13.7;3.8;;;;;;;21.6;78.55957;934.4774;;;;
2022/06/22 07:16:03;;;;;;;12.5;3.7;;;;;;;21.36;77.37109;934.4167;;;;
2022/06/22 07:18:32;;;;;;;10.1;3;;;;;;;21.35;77.9082;934.3699;;;;
2022/06/22 07:20:56;;;;;;;12.8;3.4;;;;;;;21.3;77.92188;934.3663;;;;
2022/06/22 07:23:22;;;;;;;12.3;3.7;;;;;;;21.43;80.22852;934.3875;;;;
2022/06/22 07:25:47;;;;;;;11.1;3.5;;;;;;;21.52;81.26367;934.3084;;;;
2022/06/22 07:28:12;;;;;;;10.7;3.5;;;;;;;21.6;79.50879;934.2521;;;;
2022/06/22 07:30:37;;;;;;;11.9;4;;;;;;;21.66;80.46973;934.3283;;;;
2022/06/22 07:33:02;;;;;;;12.8;3.8;;;;;;;21.71;82.28223;934.3766;;;;
2022/06/22 07:35:30;;;;;;;11.2;4.2;;;;;;;21.61;82.9541;934.3819;;;;
2022/06/22 07:37:55;;;;;;;9.4;3.3;;;;;;;21.78;83.98242;934.4785;;;;
2022/06/22 07:40:21;;;;;;;11.4;3.9;;;;;;;21.76;82.19824;934.4688;;;;
2022/06/22 07:42:46;;;;;;;13.7;4.1;;;;;;;21.96;79.13965;934.3339;;;;
2022/06/22 07:45:11;;;;;;;10.4;3.4;;;;;;;22.3;80.43164;934.4609;;;;
2022/06/22 07:47:41;;;;;;;10.2;3.6;;;;;;;22.46;77.7627;934.4122;;;;
2022/06/22 07:50:06;;;;;;;7.9;3.4;;;;;;;22.5;72.67676;934.3847;;;;
2022/06/22 07:52:31;;;;;;;8.9;3.2;;;;;;;22.88;73.87988;934.4564;;;;
2022/06/22 07:54:56;;;;;;;9.3;3.4;;;;;;;23.25;73.24609;934.5049;;;;
2022/06/22 07:57:21;;;;;;;9.8;3.7;;;;;;;23.55;71.02539;934.4354;;;;
2022/06/22 07:59:47;;;;;;;11.3;3.9;;;;;;;23.63;68.02832;934.4228;;;;
2022/06/22 08:02:11;;;;;;;11.1;3.1;;;;;;;23.81;69.85449;934.361;;;;
2022/06/22 08:04:36;;;;;;;10.4;3.6;;;;;;;23.65;68.99609;934.401;;;;
2022/06/22 08:07:01;;;;;;;10.6;3.1;;;;;;;23.74;67.80957;934.3713;;;;
2022/06/22 08:09:27;;;;;;;10.4;3.1;;;;;;;23.67;67.45703;934.2805;;;;
2022/06/22 08:11:52;;;;;;;11.2;3.7;;;;;;;23.71;69.62793;934.3178;;;;
2022/06/22 08:14:17;;;;;;;13.5;3.8;;;;;;;23.97;69.3623;934.2548;;;;
2022/06/22 08:16:43;;;;;;;12.2;3.5;;;;;;;23.92;67.9668;934.2548;;;;
2022/06/22 08:19:07;;;;;;;12;4.1;;;;;;;23.77;68.93164;934.3367;;;;
2022/06/22 08:21:36;;;;;;;11.9;3.3;;;;;;;23.86;67.50781;934.3865;;;;
2022/06/22 08:24:03;;;;;;;14;3.9;;;;;;;23.97;66.86719;934.3655;;;;
2022/06/22 08:26:30;;;;;;;11.3;3.7;;;;;;;24.02;66.29688;934.4462;;;;
2022/06/22 08:28:55;;;;;;;10.9;3.7;;;;;;;23.98;67.5625;934.4089;;;;
2022/06/22 08:31:20;;;;;;;13.5;3.5;;;;;;;24.06;67.55176;934.4227;;;;
2022/06/22 08:33:45;;;;;;;10.2;3.7;;;;;;;24.18;67.01563;934.3575;;;;
2022/06/22 08:36:12;;;;;;;10.7;3.7;;;;;;;24.23;65.35156;934.3917;;;;
2022/06/22 08:38:38;;;;;;;10.9;3.3;;;;;;;24.06;68.33984;934.3834;;;;
2022/06/22 08:41:08;;;;;;;8.5;3.1;;;;;;;23.84;70.69434;934.4476;;;;
2022/06/22 08:43:34;;;;;;;10.3;3.7;;;;;;;24.19;68.43164;934.4827;;;;
2022/06/22 08:45:59;;;;;;;12.3;3.6;;;;;;;24.23;69.56836;934.5226;;;;
2022/06/22 08:48:24;;;;;;;12;3.6;;;;;;;24.17;70.42969;934.4921;;;;
2022/06/22 08:50:52;;;;;;;15;4.5;;;;;;;24.14;69.21289;934.4852;;;;
2022/06/22 08:53:17;;;;;;;7.9;3.1;;;;;;;24;69.40332;934.4519;;;;
2022/06/22 08:55:46;;;;;;;12.5;3.6;;;;;;;23.92;70.71973;934.4805;;;;
2022/06/22 08:58:13;;;;;;;12.2;3.9;;;;;;;23.83;73.49414;934.3741;;;;
2022/06/22 09:00:40;;;;;;;10.4;3.5;;;;;;;23.85;72.89746;934.4319;;;;
2022/06/22 09:03:05;;;;;;;8.1;3.6;;;;;;;23.85;72.79297;934.4667;;;;
2022/06/22 09:05:31;;;;;;;11.9;3.5;;;;;;;23.63;73.19238;934.457;;;;
2022/06/22 09:07:57;;;;;;;12.3;3.6;;;;;;;23.73;71.97168;934.4266;;;;
2022/06/22 09:10:22;;;;;;;13.5;4;;;;;;;23.62;71.43848;934.3287;;;;
2022/06/22 09:12:47;;;;;;;12.6;3.4;;;;;;;23.63;70.58105;934.293;;;;
2022/06/22 09:15:12;;;;;;;11.1;3.9;;;;;;;23.68;71.35254;934.3055;;;;
2022/06/22 09:17:37;;;;;;;10.1;3.5;;;;;;;23.81;67.50293;934.2216;;;;
2022/06/22 09:20:02;;;;;;;9.8;3.4;;;;;;;23.77;68.54297;934.2466;;;;
2022/06/22 09:22:32;;;;;;;12;3.8;;;;;;;23.84;66.85938;934.2678;;;;
2022/06/22 09:24:58;;;;;;;10.8;3.1;;;;;;;23.97;66.34961;934.2946;;;;
2022/06/22 09:27:23;;;;;;;8.4;3.2;;;;;;;23.96;67.03027;934.3451;;;;
2022/06/22 09:29:48;;;;;;;10.2;3.8;;;;;;;24.19;66.22754;934.286;;;;
2022/06/22 09:32:15;;;;;;;12.7;4.3;;;;;;;24.41;65.69531;934.3317;;;;
2022/06/22 09:34:44;;;;;;;10.4;3.9;;;;;;;24.56;63.44238;934.3995;;;;
2022/06/22 09:37:11;;;;;;;12.2;4.3;;;;;;;24.6;63.12988;934.4525;;;;
2022/06/22 09:39:39;;;;;;;10;4;;;;;;;24.64;63.61816;934.5048;;;;
2022/06/22 09:42:05;;;;;;;9.5;3.9;;;;;;;24.36;62.99121;934.4675;;;;
2022/06/22 09:44:34;;;;;;;12.4;3.6;;;;;;;24.48;64.97461;934.4606;;;;
2022/06/22 09:46:59;;;;;;;9.6;4.2;;;;;;;24.6;64.80273;934.4033;;;;
2022/06/22 09:49:24;;;;;;;16;4.3;;;;;;;24.3;63.22754;934.4669;;;;
2022/06/22 09:52:20;;;;;;;10.8;3.9;;;;;;;24.28;62.86035;934.439;;;;
2022/06/22 09:57:10;;;;;;;12.6;3.7;;;;;;;24.06;64.31348;934.454;;;;
2022/06/22 09:59:35;;;;;;;15.7;3.8;;;;;;;24.28;68.09082;934.3691;;;;
2022/06/22 10:02:01;;;;;;;10.3;3.5;;;;;;;24.33;65.6709;934.3954;;;;
2022/06/22 10:04:26;;;;;;;10.6;3.5;;;;;;;24.39;66.17578;934.4484;;;;
2022/06/22 10:06:55;;;;;;;11.8;3.8;;;;;;;24.47;65.44434;934.443;;;;
2022/06/22 10:09:20;;;;;;;11.9;3.7;;;;;;;24.14;65.66797;934.4764;;;;
2022/06/22 10:11:46;;;;;;;13.7;4.3;;;;;;;24.22;68.6123;934.3959;;;;
2022/06/22 10:14:14;;;;;;;13.2;3.8;;;;;;;24.29;63.86328;934.468;;;;
2022/06/22 10:16:42;;;;;;;11.7;3.9;;;;;;;24.39;64.53809;934.5369;;;;
2022/06/22 10:19:07;;;;;;;12.3;3.6;;;;;;;24.46;67.41113;934.4698;;;;
2022/06/22 10:21:35;;;;;;;11;3.6;;;;;;;24.47;62.92188;934.4257;;;;
2022/06/22 10:24:02;;;;;;;10.6;3.7;;;;;;;24.55;62.36816;934.4675;;;;
2022/06/22 10:26:24;;;;;;;11.9;3.4;;;;;;;24.67;62.62109;934.4387;;;;
2022/06/22 10:28:51;;;;;;;12.6;3.9;;;;;;;24.93;62.19727;934.4503;;;;
2022/06/22 10:31:18;;;;;;;9.7;3.5;;;;;;;25.02;61.58398;934.4523;;;;
2022/06/22 10:33:48;;;;;;;13.8;3.6;;;;;;;25.12;62.91992;934.4922;;;;
2022/06/22 10:36:16;;;;;;;15.1;3.6;;;;;;;25.21;63.75879;934.4858;;;;
2022/06/22 10:38:46;;;;;;;12.7;3.7;;;;;;;25.19;61.01758;934.4556;;;;
2022/06/22 10:46:10;;;;;;;10.1;3.4;;;;;;;25.1;62.33887;934.555;;;;
2022/06/22 10:48:39;;;;;;;11.6;4.2;;;;;;;25.03;66.29395;934.5603;;;;
2022/06/22 10:51:10;;;;;;;13.1;4;;;;;;;24.98;66.02734;934.493;;;;
2022/06/22 10:53:37;;;;;;;10;3.6;;;;;;;24.88;66.22461;934.5535;;;;
2022/06/22 10:56:02;;;;;;;11.2;3.9;;;;;;;24.88;66.63672;934.4983;;;;
2022/06/22 10:58:29;;;;;;;8.8;3.8;;;;;;;24.78;67.02441;934.5584;;;;
2022/06/22 11:00:58;;;;;;;12.3;3.5;;;;;;;24.9;67.14746;934.4877;;;;
2022/06/22 11:03:26;;;;;;;9.9;4.3;;;;;;;24.98;64.29102;934.4744;;;;
2022/06/22 11:05:50;;;;;;;10.8;3.7;;;;;;;25.06;67.86816;934.4462;;;;
2022/06/22 11:08:15;;;;;;;11.1;3.9;;;;;;;25.07;69.76953;934.541;;;;
2022/06/22 11:10:44;;;;;;;8.8;3.9;;;;;;;24.96;71.88867;934.4843;;;;
2022/06/22 11:13:14;;;;;;;13.5;4;;;;;;;24.89;71.22852;934.4717;;;;
2022/06/22 11:15:44;;;;;;;11.5;4;;;;;;;25.23;68.95605;934.5361;;;;
2022/06/22 11:18:09;;;;;;;11.8;3.9;;;;;;;25.52;66.21191;934.4957;;;;
2022/06/22 11:20:36;;;;;;;11.4;4.1;;;;;;;25.66;65.58496;934.5159;;;;
2022/06/22 11:23:05;;;;;;;12.3;4.2;;;;;;;25.68;64.09766;934.5226;;;;
2022/06/22 11:32:58;;;;;;;15.8;4.3;;;;;;;26.07;63.84668;934.6254;;;;
2022/06/22 11:35:23;;;;;;;12.9;4;;;;;;;25.93;66.06055;934.5939;;;;
2022/06/22 11:37:49;;;;;;;13.3;3.3;;;;;;;26.05;58.81641;934.6386;;;;
2022/06/22 11:40:28;;;;;;;10;3.4;;;;;;;25.92;59.03613;934.6304;;;;
2022/06/22 11:42:53;;;;;;;9.2;3.6;;;;;;;25.8;61.65723;934.6497;;;;
2022/06/22 11:47:47;;;;;;;9.4;3.2;;;;;;;25.78;59.00684;934.6939;;;;
2022/06/22 11:50:20;;;;;;;11.7;3.8;;;;;;;25.83;57.8291;934.627;;;;
2022/06/22 11:52:51;;;;;;;11.3;3.9;;;;;;;25.66;60.96289;934.6002;;;;
2022/06/22 11:55:16;;;;;;;10.4;4;;;;;;;25.6;62.30176;934.5842;;;;
2022/06/22 11:57:46;;;;;;;9.5;3.7;;;;;;;25.57;61.45898;934.5458;;;;
2022/06/22 12:00:13;;;;;;;10.5;3.5;;;;;;;25.54;62.35156;934.5386;;;;
2022/06/22 12:05:17;;;;;;;8.9;3.4;;;;;;;25.6;59.7627;934.4756;;;;
2022/06/22 12:07:42;;;;;;;9.6;3.7;;;;;;;25.47;62.53223;934.4753;;;;
2022/06/22 12:10:15;;;;;;;8.8;4.3;;;;;;;25.47;62.88672;934.322;;;;
2022/06/22 12:12:40;;;;;;;10.6;4;;;;;;;25.4;61.57813;934.3109;;;;
2022/06/22 12:15:09;;;;;;;11.3;3.7;;;;;;;25.29;61.87012;934.2173;;;;
2022/06/22 12:17:30;;;;;;;12.5;3.4;;;;;;;25.26;62.71582;934.1537;;;;
2022/06/22 12:19:59;;;;;;;9.8;3.4;;;;;;;25.23;63.2666;934.2177;;;;
2022/06/22 12:22:25;;;;;;;11.2;3.9;;;;;;;24.84;66.13574;934.2447;;;;
2022/06/22 12:24:50;;;;;;;9.5;3.9;;;;;;;25.06;64.91797;934.2703;;;;
2022/06/22 12:27:15;;;;;;;12.4;3.9;;;;;;;25.13;66.46191;934.2684;;;;
2022/06/22 12:29:40;;;;;;;9.3;3.8;;;;;;;25.18;63.95508;934.241;;;;
2022/06/22 12:32:12;;;;;;;10.4;4;;;;;;;25.42;63.19922;934.1859;;;;
2022/06/22 12:34:33;;;;;;;9.6;3.5;;;;;;;25.66;62.2041;934.1802;;;;
2022/06/22 12:37:04;;;;;;;11.1;4.4;;;;;;;25.78;62.38672;934.1479;;;;
2022/06/22 12:39:29;;;;;;;14.4;4.5;;;;;;;25.77;62.75098;934.0862;;;;
2022/06/22 12:42:00;;;;;;;9.9;4.4;;;;;;;25.84;63.08008;934.1591;;;;
2022/06/22 12:44:25;;;;;;;14.9;4.1;;;;;;;26.06;63.24219;934.1573;;;;
2022/06/22 12:46:50;;;;;;;8.4;3.8;;;;;;;25.7;65.68457;934.0801;;;;
2022/06/22 12:49:16;;;;;;;8.3;4;;;;;;;25.78;67.18457;934.1036;;;;
2022/06/22 12:51:41;;;;;;;13;4.8;;;;;;;25.94;64.34863;934.1339;;;;
2022/06/22 12:54:09;;;;;;;12.3;4.5;;;;;;;25.91;66.51953;934.1447;;;;
2022/06/22 12:56:34;;;;;;;13.3;4.7;;;;;;;25.97;64.95508;934.0711;;;;
2022/06/22 12:59:00;;;;;;;11.2;4.1;;;;;;;26.16;62.80566;934.0417;;;;
2022/06/22 13:01:25;;;;;;;13.6;4.5;;;;;;;26.16;63.06738;934.0038;;;;
2022/06/22 13:03:50;;;;;;;10.7;4.3;;;;;;;26.2;62.82324;934.0044;;;;
2022/06/22 13:06:15;;;;;;;10.3;4;;;;;;;26.32;63.05273;933.9894;;;;
2022/06/22 13:08:41;;;;;;;13.3;4.5;;;;;;;26.4;62.54395;933.9695;;;;
2022/06/22 13:11:06;;;;;;;10.3;4.4;;;;;;;26.51;64.38184;934.0424;;;;
2022/06/22 13:13:31;;;;;;;11.9;4.5;;;;;;;26.31;63.58398;934.0527;;;;
2022/06/22 13:15:58;;;;;;;9.5;4.8;;;;;;;25.81;64.43555;933.9972;;;;
2022/06/22 13:18:24;;;;;;;12.8;5.7;;;;;;;25.2;66.81641;933.9653;;;;
2022/06/22 13:20:49;;;;;;;13.3;5.1;;;;;;;24.98;66.60449;933.9816;;;;
2022/06/22 13:23:19;;;;;;;10.4;5.2;;;;;;;24.42;69.06738;934.0389;;;;
2022/06/22 13:25:44;;;;;;;12.2;5.4;;;;;;;24.32;66.82422;934.0264;;;;
2022/06/22 13:28:10;;;;;;;12.5;5.2;;;;;;;24.33;67.13281;934.1519;;;;
2022/06/22 13:30:34;;;;;;;11.7;4.8;;;;;;;24.26;66.37988;934.137;;;;
2022/06/22 13:33:00;;;;;;;12.3;4.6;;;;;;;24.19;64.2959;934.1435;;;;
2022/06/22 13:35:25;;;;;;;11.7;4;;;;;;;24.32;64.42188;934.1782;;;;
2022/06/22 13:37:50;;;;;;;7.8;3.6;;;;;;;24.17;64.61035;934.2717;;;;
2022/06/22 13:40:26;;;;;;;9.3;4.1;;;;;;;24.21;63.65234;934.2558;;;;
2022/06/22 13:42:44;;;;;;;8.4;3.2;;;;;;;24.17;62.17383;934.1998;;;;
2022/06/22 13:45:19;;;;;;;10.4;3.6;;;;;;;24.02;63.6709;934.1859;;;;
2022/06/22 13:47:46;;;;;;;14.2;4;;;;;;;23.7;63.56738;934.1199;;;;
2022/06/22 13:50:18;;;;;;;17.3;3.2;;;;;;;23.53;63.75586;934.1026;;;;
2022/06/22 13:52:45;;;;;;;10.9;3;;;;;;;23.55;63.03906;934.11;;;;
2022/06/22 13:55:10;;;;;;;11.4;3.9;;;;;;;23.67;63.89258;934.1601;;;;
2022/06/22 13:57:35;;;;;;;9.6;3.2;;;;;;;23.64;63.89941;934.1788;;;;
2022/06/22 14:00:00;;;;;;;12.3;3.1;;;;;;;23.71;63.2041;934.2078;;;;
2022/06/22 14:02:26;;;;;;;8.6;3.5;;;;;;;23.74;64.10352;934.168;;;;
2022/06/22 14:04:51;;;;;;;13.2;4;;;;;;;23.83;63.23242;934.0731;;;;
2022/06/22 14:07:16;;;;;;;14.4;3.9;;;;;;;23.9;63.40723;934.0585;;;;
2022/06/22 14:09:41;;;;;;;9.9;3;;;;;;;23.82;64.00781;934.1433;;;;
2022/06/22 14:12:07;;;;;;;11.5;3.6;;;;;;;23.49;66.85547;934.1175;;;;
2022/06/22 14:14:32;;;;;;;13.2;3.4;;;;;;;23.58;64.78516;934.0818;;;;
2022/06/22 14:17:01;;;;;;;8.3;3;;;;;;;23.7;64.41406;934.1663;;;;
2022/06/22 14:19:26;;;;;;;11.3;3.5;;;;;;;23.79;64.08594;934.2172;;;;
2022/06/22 14:21:51;;;;;;;8.6;3;;;;;;;23.71;64.13281;934.1598;;;;
2022/06/22 14:24:16;;;;;;;14.3;3.6;;;;;;;23.72;64.02832;934.1376;;;;
2022/06/22 14:26:42;;;;;;;8.3;3.2;;;;;;;23.71;63.5791;934.1268;;;;
2022/06/22 14:29:07;;;;;;;9.1;3.5;;;;;;;23.7;63.74316;934.063;;;;
2022/06/22 14:31:32;;;;;;;13.6;3.5;;;;;;;23.85;63.51758;933.9634;;;;
2022/06/22 14:33:58;;;;;;;16.4;3.7;;;;;;;23.87;64.13281;933.9858;;;;
2022/06/22 14:36:26;;;;;;;11.5;4.1;;;;;;;24.15;64.64453;933.9771;;;;
2022/06/22 14:38:52;;;;;;;12.6;3.4;;;;;;;24.22;62.61719;934.0069;;;;
2022/06/22 14:41:21;;;;;;;8.3;3.2;;;;;;;24.5;62.27832;934.0173;;;;
2022/06/22 14:43:48;;;;;;;10.1;3.8;;;;;;;24.16;63.3623;934.0314;;;;
2022/06/22 14:46:14;;;;;;;8.5;3.5;;;;;;;24.38;63.34668;933.9791;;;;
2022/06/22 14:48:39;;;;;;;11.4;3.4;;;;;;;24.01;65.05859;934.0072;;;;
2022/06/22 14:51:04;;;;;;;8.5;3.3;;;;;;;23.97;63.93652;933.9106;;;;
2022/06/22 14:53:31;;;;;;;11;4.1;;;;;;;23.7;65.4375;934.0248;;;;
2022/06/22 14:55:56;;;;;;;10.5;3.7;;;;;;;23.7;66.15527;933.9459;;;;
2022/06/22 14:58:26;;;;;;;12.2;4.3;;;;;;;23.44;67.50586;933.9811;;;;
2022/06/22 15:00:51;;;;;;;9.9;4.3;;;;;;;23.46;66.81348;933.9495;;;;
2022/06/22 15:03:16;;;;;;;11.5;4.4;;;;;;;23.45;67.34082;933.9727;;;;
2022/06/22 15:05:42;;;;;;;13.1;4.2;;;;;;;23.34;66.9834;933.9394;;;;
2022/06/22 15:08:12;;;;;;;9.6;3.9;;;;;;;23.25;67.46387;933.8995;;;;
2022/06/22 15:10:36;;;;;;;12.7;4.2;;;;;;;22.96;69.13574;933.8999;;;;
2022/06/22 15:13:02;;;;;;;11.3;4.3;;;;;;;23.08;68.69434;933.8805;;;;
2022/06/22 15:15:28;;;;;;;12.4;4.1;;;;;;;23.09;67.88672;933.887;;;;
2022/06/22 15:17:57;;;;;;;9.8;3.8;;;;;;;22.87;69.26172;933.8563;;;;
2022/06/22 15:20:26;;;;;;;11.4;4.1;;;;;;;22.83;70.26563;933.8295;;;;
2022/06/22 15:22:55;;;;;;;10.6;3.9;;;;;;;22.73;70.8252;933.8739;;;;
2022/06/22 15:25:25;;;;;;;10.5;4.1;;;;;;;22.77;70.4082;933.8317;;;;
2022/06/22 15:27:52;;;;;;;9.1;4.4;;;;;;;22.83;70.07617;933.8801;;;;
2022/06/22 15:30:17;;;;;;;12.2;4.4;;;;;;;22.75;71.02734;933.861;;;;
2022/06/22 15:32:43;;;;;;;13.9;4.6;;;;;;;22.67;71.27344;933.8564;;;;
2022/06/22 15:35:15;;;;;;;9.2;4.1;;;;;;;22.7;70.98438;933.8544;;;;
2022/06/22 15:37:43;;;;;;;10.8;4.2;;;;;;;22.52;72.35254;933.8285;;;;
2022/06/22 15:40:13;;;;;;;10.3;4.7;;;;;;;22.57;72.34668;933.8728;;;;
2022/06/22 15:42:39;;;;;;;11.2;4.7;;;;;;;22.51;72.45508;933.9419;;;;
2022/06/22 15:45:04;;;;;;;11.9;4.1;;;;;;;22.52;72.9502;934.0164;;;;
2022/06/22 15:47:32;;;;;;;12.3;4.3;;;;;;;22.3;73.4541;934.0968;;;;
2022/06/22 15:49:58;;;;;;;10.5;4.9;;;;;;;22.18;74.30078;934.1082;;;;
2022/06/22 15:52:24;;;;;;;11.1;4.6;;;;;;;22.19;74.83105;934.1277;;;;
2022/06/22 15:54:49;;;;;;;11.3;4.8;;;;;;;22.17;75.26172;934.2203;;;;